createdAt,value
2023-01-28T00:11:02.854Z,2.5
2023-01-28T00:26:12.471Z,2.5
2023-01-28T00:41:20.935Z,2.5
2023-01-28T00:56:30.564Z,2.4
2023-01-28T01:11:39.963Z,2.4
2023-01-28T01:26:48.819Z,2.4
2023-01-28T01:41:58.106Z,2.4
2023-01-28T01:57:07.423Z,2.4
2023-01-28T02:12:16.942Z,2.4
2023-01-28T02:27:26.072Z,2.3
2023-01-28T02:42:35.748Z,2.3
2023-01-28T02:57:45.006Z,2.3
2023-01-28T03:12:53.372Z,2.2
2023-01-28T03:28:02.991Z,2.2
2023-01-28T03:43:12.321Z,2.2
2023-01-28T03:58:21.584Z,2.1
2023-01-28T04:13:30.910Z,2.1
2023-01-28T04:29:50.706Z,2.5
2023-01-28T04:45:00.699Z,2.2
2023-01-28T05:00:09.843Z,2.1
2023-01-28T05:15:19.283Z,2.1
2023-01-28T05:30:28.392Z,2.1
2023-01-28T05:45:37.979Z,2
2023-01-28T06:00:47.991Z,2
2023-01-28T06:15:57.321Z,1.9
2023-01-28T06:31:07.900Z,1.9
2023-01-28T06:46:17.795Z,1.9
2023-01-28T07:01:27.847Z,1.8
2023-01-28T07:16:37.514Z,1.8
2023-01-28T07:31:47.248Z,1.8
2023-01-28T07:46:57.674Z,1.8
2023-01-28T08:02:07.366Z,1.8
2023-01-28T08:17:16.809Z,1.8
2023-01-28T08:32:26.676Z,1.8
2023-01-28T08:47:37.110Z,2
2023-01-28T09:02:48.537Z,2
2023-01-28T09:17:58.331Z,2.1
2023-01-28T09:33:08.146Z,1.9
2023-01-28T09:48:18.202Z,1.9
2023-01-28T10:03:27.674Z,1.9
2023-01-28T10:18:38.005Z,2
2023-01-28T10:33:47.170Z,2.1
2023-01-28T10:48:56.726Z,2.2
2023-01-28T11:04:06.340Z,2.2
2023-01-28T11:19:15.166Z,2.2
2023-01-28T11:34:24.003Z,2.3
2023-01-28T11:49:34.092Z,2.4
2023-01-28T12:04:44.430Z,2.5
2023-01-28T12:19:54.291Z,2.8
2023-01-28T12:35:04.110Z,3.2
2023-01-28T12:50:14.468Z,3.5
2023-01-28T13:05:26.269Z,3.2
2023-01-28T13:20:36.053Z,3.2
2023-01-28T13:35:45.596Z,3.6
2023-01-28T13:50:55.508Z,3.5
2023-01-28T14:06:04.852Z,3.3
2023-01-28T14:21:14.117Z,3
2023-01-28T14:36:23.216Z,2.7
2023-01-28T14:51:32.568Z,2.5
2023-01-28T15:06:41.937Z,2.2
2023-01-28T15:21:50.472Z,2.2
2023-01-28T15:37:00.061Z,2
2023-01-28T15:52:09.705Z,1.9
2023-01-28T16:07:18.934Z,1.8
2023-01-28T16:22:28.422Z,1.8
2023-01-28T16:37:39.422Z,1.7
2023-01-28T16:52:51.439Z,1.5
2023-01-28T17:08:01.132Z,1.5
2023-01-28T17:23:11.393Z,1.4
2023-01-28T17:38:21.202Z,1.1
2023-01-28T17:53:30.708Z,1
2023-01-28T18:08:39.715Z,1
2023-01-28T18:23:49.690Z,0.9
2023-01-28T18:38:59.437Z,0.7
2023-01-28T18:54:11.626Z,0.5
2023-01-28T19:09:24.820Z,0.5
2023-01-28T19:24:33.635Z,0.4
2023-01-28T19:39:42.305Z,0.4
2023-01-28T19:54:51.674Z,0.4
2023-01-28T20:10:01.135Z,0.5
2023-01-28T20:25:11.143Z,0.5
2023-01-28T20:40:20.547Z,0.6
2023-01-28T20:55:30.253Z,0.8
2023-01-28T21:10:40.149Z,0.9
2023-01-28T21:25:49.543Z,0.9
2023-01-28T21:40:59.662Z,1.1
2023-01-28T21:56:09.564Z,1.1
2023-01-28T22:11:19.345Z,1.2
2023-01-28T22:26:28.890Z,1.2
2023-01-28T22:41:38.839Z,1.2
2023-01-28T22:56:49.916Z,1.1
2023-01-28T23:12:00.119Z,1.2
2023-01-28T23:27:10.093Z,1.3
2023-01-28T23:42:19.416Z,1.2
2023-01-28T23:57:28.621Z,1.2
